Time;durP1;ratioP1;P1;durP2;ratioP2;P2;SDS_P1;SDS_P2;PMS_P1;PMS_P2;Temp;Humidity;BMP_temperature;BMP_pressure;BME280_temperature;BME280_humidity;BME280_pressure;Samples;Min_cycle;Max_cycle;Signal;HPM_P1;HPM_P2
2023/05/29 00:01:45;;;;;;;3.97;3.17;;;;;;;;;;5015181;28;20222;-49
2023/05/29 00:04:12;;;;;;;4.05;3.10;;;;;;;;;;5003824;28;20237;-49
2023/05/29 00:06:38;;;;;;;3.72;3.17;;;;;;;;;;5006182;28;20194;-49
2023/05/29 00:09:04;;;;;;;3.78;3.30;;;;;;;;;;5015262;28;20213;-49
2023/05/29 00:11:30;;;;;;;4.70;3.50;;;;;;;;;;5010173;28;20225;-50
2023/05/29 00:13:56;;;;;;;4.78;3.55;;;;;;;;;;5018113;28;20208;-49
2023/05/29 00:16:23;;;;;;;4.07;3.10;;;;;;;;;;5001455;28;20256;-49
2023/05/29 00:18:49;;;;;;;4.90;3.58;;;;;;;;;;5008606;28;20357;-49
2023/05/29 00:21:15;;;;;;;4.32;3.03;;;;;;;;;;5022367;28;20221;-49
2023/05/29 00:23:41;;;;;;;4.28;3.25;;;;;;;;;;5014006;28;20198;-50
2023/05/29 00:26:07;;;;;;;5.57;3.30;;;;;;;;;;5009258;28;20574;-49
2023/05/29 00:28:34;;;;;;;6.00;3.30;;;;;;;;;;5011390;28;20206;-50
2023/05/29 00:31:00;;;;;;;4.43;3.30;;;;;;;;;;5011447;28;20664;-49
2023/05/29 00:33:26;;;;;;;5.38;2.85;;;;;;;;;;5012942;28;20201;-50
2023/05/29 00:35:52;;;;;;;4.43;3.45;;;;;;;;;;5015038;28;20213;-51
2023/05/29 00:38:18;;;;;;;4.82;3.30;;;;;;;;;;5014422;28;20193;-50
2023/05/29 00:40:44;;;;;;;4.82;3.38;;;;;;;;;;5014992;28;20194;-51
2023/05/29 00:43:10;;;;;;;3.20;2.90;;;;;;;;;;5013018;28;20201;-50
2023/05/29 00:45:36;;;;;;;6.43;3.33;;;;;;;;;;5019773;28;20209;-49
2023/05/29 00:48:06;;;;;;;4.75;3.30;;;;;;;;;;5013249;28;20473;-49
2023/05/29 00:50:32;;;;;;;3.67;3.03;;;;;;;;;;5009792;28;20233;-48
2023/05/29 00:52:59;;;;;;;3.25;2.95;;;;;;;;;;5014081;28;20217;-51
2023/05/29 00:55:25;;;;;;;7.15;2.80;;;;;;;;;;5012393;28;20446;-49
2023/05/29 00:57:52;;;;;;;4.55;3.30;;;;;;;;;;5006441;28;20190;-49
2023/05/29 01:00:18;;;;;;;7.25;3.25;;;;;;;;;;5009257;28;20209;-49
2023/05/29 01:02:44;;;;;;;3.92;3.13;;;;;;;;;;5021929;28;20244;-48
2023/05/29 01:05:11;;;;;;;5.15;3.25;;;;;;;;;;5008023;28;20244;-49
2023/05/29 01:07:37;;;;;;;5.38;3.30;;;;;;;;;;5013196;28;20194;-48
2023/05/29 01:10:03;;;;;;;3.33;2.90;;;;;;;;;;5013277;28;20288;-49
2023/05/29 01:12:36;;;;;;;5.03;3.30;;;;;;;;;;5011060;28;20210;-49
2023/05/29 01:15:11;;;;;;;3.67;2.80;;;;;;;;;;5012595;28;20194;-49
2023/05/29 01:17:44;;;;;;;4.40;3.47;;;;;;;;;;5015994;28;20228;-51
2023/05/29 01:20:17;;;;;;;4.15;3.00;;;;;;;;;;5006894;28;20202;-50
2023/05/29 01:22:43;;;;;;;5.20;2.97;;;;;;;;;;5012639;28;20504;-49
2023/05/29 01:25:17;;;;;;;4.28;2.83;;;;;;;;;;5006775;28;20210;-50
2023/05/29 01:27:44;;;;;;;4.35;2.78;;;;;;;;;;5013955;28;20196;-50
2023/05/29 01:30:12;;;;;;;3.30;2.95;;;;;;;;;;5012247;28;20214;-49
2023/05/29 01:32:39;;;;;;;6.97;3.03;;;;;;;;;;5010647;28;20209;-49
2023/05/29 01:35:05;;;;;;;3.17;2.83;;;;;;;;;;5013421;28;20229;-49
2023/05/29 01:37:31;;;;;;;4.68;2.95;;;;;;;;;;5010359;28;20201;-50
2023/05/29 01:39:57;;;;;;;3.25;2.78;;;;;;;;;;5014179;28;20202;-49
2023/05/29 01:42:23;;;;;;;3.83;2.83;;;;;;;;;;5000115;28;20242;-49
2023/05/29 01:44:49;;;;;;;3.60;2.97;;;;;;;;;;5012764;28;20201;-49
2023/05/29 01:47:16;;;;;;;3.30;2.90;;;;;;;;;;5013931;28;20190;-49
2023/05/29 01:49:42;;;;;;;6.30;3.20;;;;;;;;;;5009015;28;20198;-49
2023/05/29 01:52:08;;;;;;;3.97;3.10;;;;;;;;;;5008523;28;20271;-49
2023/05/29 01:54:34;;;;;;;4.05;3.42;;;;;;;;;;5017291;28;20198;-49
2023/05/29 01:57:02;;;;;;;5.00;3.00;;;;;;;;;;5010927;28;20202;-49
2023/05/29 01:59:28;;;;;;;2.92;2.55;;;;;;;;;;5012013;28;20186;-51
2023/05/29 02:01:54;;;;;;;4.30;3.05;;;;;;;;;;5009478;28;20265;-48
2023/05/29 02:04:20;;;;;;;3.42;2.70;;;;;;;;;;5017591;28;20272;-49
2023/05/29 02:06:46;;;;;;;3.45;2.72;;;;;;;;;;5018183;28;20205;-50
2023/05/29 02:09:12;;;;;;;3.90;2.95;;;;;;;;;;5006593;28;20198;-51
2023/05/29 02:11:38;;;;;;;4.57;3.05;;;;;;;;;;5012248;28;20284;-50
2023/05/29 02:14:04;;;;;;;4.00;2.88;;;;;;;;;;5018326;28;20512;-50
2023/05/29 02:16:33;;;;;;;3.38;2.78;;;;;;;;;;5010654;28;20217;-49
2023/05/29 02:18:59;;;;;;;3.47;2.85;;;;;;;;;;5026301;28;20204;-49
2023/05/29 02:21:25;;;;;;;5.18;3.17;;;;;;;;;;5011197;28;20475;-49
2023/05/29 02:23:51;;;;;;;3.47;2.75;;;;;;;;;;5018461;28;20192;-49
2023/05/29 02:26:16;;;;;;;3.58;2.78;;;;;;;;;;5018704;28;20458;-50
2023/05/29 02:28:42;;;;;;;4.05;2.53;;;;;;;;;;5017348;28;20286;-50
2023/05/29 02:31:08;;;;;;;3.25;2.67;;;;;;;;;;5015690;28;20214;-49
2023/05/29 02:33:34;;;;;;;4.78;2.88;;;;;;;;;;5016998;28;20515;-49
2023/05/29 02:36:00;;;;;;;4.65;2.50;;;;;;;;;;5009621;28;20193;-49
2023/05/29 02:38:26;;;;;;;4.05;2.83;;;;;;;;;;5016982;28;20269;-51
2023/05/29 02:40:52;;;;;;;3.05;2.67;;;;;;;;;;5017725;28;20463;-48
2023/05/29 02:43:18;;;;;;;5.95;2.80;;;;;;;;;;5013077;28;20203;-49
2023/05/29 02:45:44;;;;;;;3.33;2.60;;;;;;;;;;5006205;28;20240;-49
2023/05/29 02:48:10;;;;;;;4.28;3.22;;;;;;;;;;5012881;28;20633;-50
2023/05/29 02:50:35;;;;;;;5.43;2.72;;;;;;;;;;5012462;28;20194;-49
2023/05/29 02:53:02;;;;;;;3.42;2.78;;;;;;;;;;5013661;28;20313;-49
2023/05/29 02:55:28;;;;;;;3.25;2.70;;;;;;;;;;5017458;28;20612;-49
2023/05/29 02:57:55;;;;;;;3.15;2.53;;;;;;;;;;5014801;28;20677;-51
2023/05/29 03:00:21;;;;;;;5.28;3.25;;;;;;;;;;5015462;28;20186;-50
2023/05/29 03:02:47;;;;;;;3.30;2.53;;;;;;;;;;5015629;28;20462;-49
2023/05/29 03:05:12;;;;;;;3.92;2.72;;;;;;;;;;5016392;28;20540;-49
2023/05/29 03:07:38;;;;;;;3.28;2.67;;;;;;;;;;5012603;28;20210;-50
2023/05/29 03:10:04;;;;;;;2.50;2.30;;;;;;;;;;5011768;28;20211;-50
2023/05/29 03:12:30;;;;;;;3.83;2.97;;;;;;;;;;5015368;28;20229;-49
2023/05/29 03:14:57;;;;;;;3.45;2.88;;;;;;;;;;5021740;28;20198;-51
2023/05/29 03:17:23;;;;;;;7.10;2.75;;;;;;;;;;5009235;28;20293;-49
2023/05/29 03:19:48;;;;;;;3.58;2.80;;;;;;;;;;5015772;28;20373;-49
2023/05/29 03:22:14;;;;;;;3.45;2.50;;;;;;;;;;5014227;28;20206;-51
2023/05/29 03:24:40;;;;;;;5.03;2.67;;;;;;;;;;5009137;28;20206;-49
2023/05/29 03:27:06;;;;;;;3.20;2.28;;;;;;;;;;5009526;28;20210;-49
2023/05/29 03:29:32;;;;;;;2.58;2.38;;;;;;;;;;5013147;28;20187;-49
2023/05/29 03:31:58;;;;;;;5.63;2.75;;;;;;;;;;5012032;28;20296;-51
2023/05/29 03:34:25;;;;;;;5.32;2.92;;;;;;;;;;5016194;28;20196;-49
2023/05/29 03:36:51;;;;;;;4.65;2.70;;;;;;;;;;5013390;28;20206;-49
2023/05/29 03:39:17;;;;;;;4.03;2.72;;;;;;;;;;5012135;28;20193;-49
2023/05/29 03:41:42;;;;;;;3.78;2.90;;;;;;;;;;5015901;28;20198;-49
2023/05/29 03:44:09;;;;;;;3.83;3.00;;;;;;;;;;5016050;28;20202;-51
2023/05/29 03:46:35;;;;;;;3.33;2.65;;;;;;;;;;5022222;28;20205;-50
2023/05/29 03:49:01;;;;;;;2.95;2.55;;;;;;;;;;5015315;28;20194;-50
2023/05/29 03:51:27;;;;;;;4.50;2.85;;;;;;;;;;5006946;28;20221;-49
2023/05/29 03:53:53;;;;;;;2.70;2.50;;;;;;;;;;5014617;28;20183;-49
2023/05/29 03:56:19;;;;;;;3.08;2.58;;;;;;;;;;5011715;28;20194;-49
2023/05/29 03:58:45;;;;;;;35.85;8.73;;;;;;;;;;5016047;28;20269;-49
2023/05/29 04:01:11;;;;;;;53.45;12.77;;;;;;;;;;5013069;28;20234;-49
2023/05/29 04:03:37;;;;;;;39.28;9.93;;;;;;;;;;5014795;28;20280;-49
2023/05/29 04:06:03;;;;;;;39.90;8.40;;;;;;;;;;5015569;28;20570;-49
2023/05/29 04:08:29;;;;;;;35.30;8.30;;;;;;;;;;5014504;28;20342;-50
2023/05/29 04:10:55;;;;;;;32.35;9.38;;;;;;;;;;5015184;28;20190;-50
2023/05/29 04:13:21;;;;;;;87.50;17.77;;;;;;;;;;5006699;28;20193;-49
2023/05/29 04:15:47;;;;;;;70.72;18.13;;;;;;;;;;5009990;28;20186;-48
2023/05/29 04:18:13;;;;;;;54.63;13.93;;;;;;;;;;5014661;28;20461;-50
2023/05/29 04:20:39;;;;;;;43.85;11.80;;;;;;;;;;5015824;28;20574;-50
2023/05/29 04:23:05;;;;;;;46.90;11.60;;;;;;;;;;5008116;28;20194;-50
2023/05/29 04:25:32;;;;;;;39.42;9.23;;;;;;;;;;5006268;28;20633;-49
2023/05/29 04:28:01;;;;;;;33.58;9.82;;;;;;;;;;5025856;28;20236;-49
2023/05/29 04:30:28;;;;;;;32.85;9.77;;;;;;;;;;5015506;28;20190;-49
2023/05/29 04:32:54;;;;;;;32.45;8.80;;;;;;;;;;5012084;28;20490;-49
2023/05/29 04:35:21;;;;;;;32.25;8.88;;;;;;;;;;5014477;28;20202;-50
2023/05/29 04:37:47;;;;;;;25.23;8.05;;;;;;;;;;5014256;28;20218;-50
2023/05/29 04:40:17;;;;;;;23.88;7.38;;;;;;;;;;5008129;28;20671;-49
2023/05/29 04:42:45;;;;;;;24.65;7.82;;;;;;;;;;5015000;28;20305;-49
2023/05/29 04:45:11;;;;;;;22.55;7.45;;;;;;;;;;5014590;28;20205;-49
2023/05/29 04:47:43;;;;;;;25.35;7.03;;;;;;;;;;5014641;28;20186;-49
2023/05/29 04:50:12;;;;;;;15.40;5.55;;;;;;;;;;5013110;28;20198;-49
2023/05/29 04:52:38;;;;;;;14.30;5.55;;;;;;;;;;5016529;28;20644;-49
2023/05/29 04:55:05;;;;;;;16.25;5.50;;;;;;;;;;5016278;28;20585;-49
2023/05/29 04:57:31;;;;;;;12.13;5.00;;;;;;;;;;5011576;28;20194;-49
2023/05/29 04:59:57;;;;;;;10.15;4.90;;;;;;;;;;5011156;28;20201;-49
2023/05/29 05:02:23;;;;;;;11.88;4.22;;;;;;;;;;5013517;28;20194;-49
2023/05/29 05:04:50;;;;;;;9.73;4.40;;;;;;;;;;5010052;28;20204;-49
2023/05/29 05:07:16;;;;;;;9.88;4.65;;;;;;;;;;5013273;28;20198;-50
2023/05/29 05:09:42;;;;;;;9.60;4.50;;;;;;;;;;5009912;28;20195;-49
2023/05/29 05:12:08;;;;;;;9.52;4.22;;;;;;;;;;5007366;28;20228;-49
2023/05/29 05:14:34;;;;;;;6.70;3.53;;;;;;;;;;5009249;28;20189;-49
2023/05/29 05:17:00;;;;;;;9.15;3.97;;;;;;;;;;5013891;28;20226;-50
2023/05/29 05:19:26;;;;;;;8.40;4.75;;;;;;;;;;5008104;28;20214;-49
2023/05/29 05:21:52;;;;;;;5.95;3.28;;;;;;;;;;5013100;28;20198;-50
2023/05/29 05:24:18;;;;;;;5.65;3.30;;;;;;;;;;5013918;28;20288;-48
2023/05/29 05:26:44;;;;;;;7.35;3.60;;;;;;;;;;5010363;28;20525;-49
2023/05/29 05:29:10;;;;;;;6.85;3.50;;;;;;;;;;5006000;28;20647;-49
2023/05/29 05:31:36;;;;;;;8.10;3.20;;;;;;;;;;5014124;28;20212;-51
2023/05/29 05:34:01;;;;;;;8.05;3.40;;;;;;;;;;5014193;28;20224;-49
2023/05/29 05:36:27;;;;;;;5.30;3.08;;;;;;;;;;5014885;28;20192;-51
2023/05/29 05:38:53;;;;;;;6.35;2.70;;;;;;;;;;5019960;28;20188;-50
2023/05/29 05:41:20;;;;;;;4.72;2.75;;;;;;;;;;5014886;28;20283;-50
2023/05/29 05:43:46;;;;;;;5.15;3.10;;;;;;;;;;5022340;28;20187;-52
2023/05/29 05:46:13;;;;;;;5.93;3.10;;;;;;;;;;5020183;28;20193;-51
2023/05/29 05:48:40;;;;;;;6.05;3.72;;;;;;;;;;5021017;28;20190;-49
2023/05/29 05:51:06;;;;;;;5.85;3.10;;;;;;;;;;5014815;28;20574;-49
2023/05/29 05:53:32;;;;;;;5.57;2.70;;;;;;;;;;5012519;28;20237;-50
2023/05/29 05:55:58;;;;;;;4.82;2.88;;;;;;;;;;5016797;28;20595;-50
2023/05/29 05:58:24;;;;;;;4.97;3.17;;;;;;;;;;5020898;28;20190;-49
2023/05/29 06:00:52;;;;;;;5.22;2.90;;;;;;;;;;5024419;28;20224;-49
2023/05/29 06:03:18;;;;;;;5.88;3.00;;;;;;;;;;5021000;28;20370;-50
2023/05/29 06:05:44;;;;;;;3.08;2.60;;;;;;;;;;5021460;28;20304;-49
2023/05/29 06:08:10;;;;;;;3.03;2.60;;;;;;;;;;5016020;28;20209;-50
2023/05/29 06:10:36;;;;;;;4.43;2.90;;;;;;;;;;5031105;28;20174;-49
2023/05/29 06:13:01;;;;;;;4.63;2.88;;;;;;;;;;5014746;28;20228;-50
2023/05/29 06:15:27;;;;;;;4.75;2.88;;;;;;;;;;5017404;28;20240;-51
2023/05/29 06:17:55;;;;;;;5.90;3.45;;;;;;;;;;5020437;28;20534;-49
2023/05/29 06:20:21;;;;;;;5.00;3.45;;;;;;;;;;5014863;28;20201;-49
2023/05/29 06:22:50;;;;;;;5.35;2.75;;;;;;;;;;5017453;28;20257;-50
2023/05/29 06:25:16;;;;;;;4.82;3.08;;;;;;;;;;5014770;28;20243;-49
2023/05/29 06:27:42;;;;;;;5.50;3.35;;;;;;;;;;5012562;28;20193;-49
2023/05/29 06:30:08;;;;;;;6.72;3.58;;;;;;;;;;5016882;28;20232;-49
2023/05/29 06:32:34;;;;;;;7.97;3.60;;;;;;;;;;5019733;28;20348;-49
2023/05/29 06:35:00;;;;;;;10.35;4.57;;;;;;;;;;5026640;28;20574;-49
2023/05/29 06:37:26;;;;;;;8.13;4.45;;;;;;;;;;5018314;28;20180;-50
2023/05/29 06:39:52;;;;;;;11.10;4.03;;;;;;;;;;5018150;28;20539;-49
2023/05/29 06:42:18;;;;;;;7.38;3.92;;;;;;;;;;5017096;28;20230;-49
2023/05/29 06:44:44;;;;;;;11.45;4.53;;;;;;;;;;5033638;28;20525;-50
2023/05/29 06:47:09;;;;;;;7.20;3.88;;;;;;;;;;5015014;28;20197;-50
2023/05/29 06:49:35;;;;;;;9.63;4.40;;;;;;;;;;5015879;28;20187;-50
2023/05/29 06:52:01;;;;;;;8.13;4.13;;;;;;;;;;5016544;28;20213;-49
2023/05/29 06:54:27;;;;;;;8.10;3.63;;;;;;;;;;5016768;28;20225;-49
2023/05/29 06:56:53;;;;;;;8.98;4.10;;;;;;;;;;5007781;28;20195;-49
2023/05/29 06:59:20;;;;;;;6.82;3.90;;;;;;;;;;5006735;28;20520;-52
2023/05/29 07:01:46;;;;;;;7.05;3.63;;;;;;;;;;5013942;28;20256;-50
2023/05/29 07:04:12;;;;;;;7.03;3.75;;;;;;;;;;5014987;28;20332;-50
2023/05/29 07:06:38;;;;;;;9.55;4.50;;;;;;;;;;5017322;28;20626;-50
2023/05/29 07:09:04;;;;;;;9.38;4.30;;;;;;;;;;5014032;28;20556;-49
2023/05/29 07:11:30;;;;;;;9.75;4.07;;;;;;;;;;5001499;28;20220;-49
2023/05/29 07:13:56;;;;;;;7.28;4.35;;;;;;;;;;5013070;28;20188;-48
2023/05/29 07:16:22;;;;;;;5.82;4.18;;;;;;;;;;5012957;28;20205;-49
2023/05/29 07:18:48;;;;;;;7.10;3.80;;;;;;;;;;5013434;28;20493;-49
2023/05/29 07:21:14;;;;;;;8.30;3.88;;;;;;;;;;5015282;28;20199;-50
2023/05/29 07:23:40;;;;;;;6.95;3.83;;;;;;;;;;5021521;28;20581;-49
2023/05/29 07:26:06;;;;;;;10.77;3.60;;;;;;;;;;5016079;28;20194;-56
2023/05/29 07:28:32;;;;;;;7.65;3.33;;;;;;;;;;5012916;28;20170;-50
2023/05/29 07:30:58;;;;;;;17.05;5.88;;;;;;;;;;5014453;28;20568;-53
2023/05/29 07:33:24;;;;;;;8.13;3.17;;;;;;;;;;5010920;28;20198;-61
2023/05/29 07:35:50;;;;;;;7.25;3.70;;;;;;;;;;5009992;28;20397;-51
2023/05/29 07:38:15;;;;;;;11.15;3.30;;;;;;;;;;5018887;28;20582;-50
2023/05/29 07:40:42;;;;;;;5.80;3.63;;;;;;;;;;5016367;28;20003;-50
2023/05/29 07:43:07;;;;;;;6.18;3.30;;;;;;;;;;5015582;28;20564;-50
2023/05/29 07:45:33;;;;;;;4.95;3.35;;;;;;;;;;5016160;28;20180;-49
2023/05/29 07:48:00;;;;;;;5.40;3.50;;;;;;;;;;5012713;28;20184;-50
2023/05/29 07:50:26;;;;;;;6.47;3.03;;;;;;;;;;5015558;28;20417;-49
2023/05/29 07:52:52;;;;;;;5.63;2.67;;;;;;;;;;5014047;28;20596;-50
2023/05/29 07:55:18;;;;;;;8.15;3.55;;;;;;;;;;5017351;28;20481;-50
2023/05/29 07:57:45;;;;;;;5.78;3.25;;;;;;;;;;5023035;28;20172;-50
2023/05/29 08:00:13;;;;;;;5.10;3.08;;;;;;;;;;5011664;28;20741;-49
2023/05/29 08:02:39;;;;;;;6.43;3.40;;;;;;;;;;5011573;28;20181;-50
2023/05/29 08:05:07;;;;;;;5.25;3.72;;;;;;;;;;5008919;28;20248;-50
2023/05/29 08:07:33;;;;;;;5.30;3.20;;;;;;;;;;5013077;28;20603;-49
2023/05/29 08:09:59;;;;;;;7.28;3.58;;;;;;;;;;5014663;28;20199;-50
2023/05/29 08:12:25;;;;;;;4.85;3.22;;;;;;;;;;5011251;28;20588;-50
2023/05/29 08:14:51;;;;;;;4.75;3.05;;;;;;;;;;5013947;28;20493;-50
2023/05/29 08:17:17;;;;;;;4.28;3.25;;;;;;;;;;5010016;28;20453;-50
2023/05/29 08:19:43;;;;;;;6.55;3.50;;;;;;;;;;5012584;28;20200;-50
2023/05/29 08:22:12;;;;;;;4.25;3.10;;;;;;;;;;5011423;28;20271;-50
2023/05/29 08:24:38;;;;;;;5.68;3.58;;;;;;;;;;5007402;28;20185;-49
2023/05/29 08:27:04;;;;;;;6.95;3.55;;;;;;;;;;5009154;28;20246;-50
2023/05/29 08:29:30;;;;;;;4.70;3.20;;;;;;;;;;5014613;28;20196;-50
2023/05/29 08:31:56;;;;;;;5.68;3.40;;;;;;;;;;5013311;28;20196;-49
2023/05/29 08:34:22;;;;;;;4.20;2.97;;;;;;;;;;5013586;28;20202;-50
2023/05/29 08:36:51;;;;;;;3.88;3.00;;;;;;;;;;5008046;28;20177;-50
2023/05/29 08:39:17;;;;;;;5.07;3.28;;;;;;;;;;5013239;28;20431;-49
2023/05/29 08:42:02;;;;;;;4.53;2.80;;;;;;;;;;5029953;28;20294;-49
2023/05/29 08:44:30;;;;;;;6.05;3.47;;;;;;;;;;5030146;28;20207;-49
2023/05/29 08:46:56;;;;;;;5.55;3.35;;;;;;;;;;5005078;28;20615;-49
2023/05/29 08:49:22;;;;;;;5.30;3.10;;;;;;;;;;5013414;28;20188;-50
2023/05/29 08:51:50;;;;;;;4.43;3.50;;;;;;;;;;5014848;28;20200;-49
2023/05/29 08:54:16;;;;;;;4.80;3.53;;;;;;;;;;5007910;28;20204;-50
2023/05/29 08:56:43;;;;;;;3.85;3.17;;;;;;;;;;5015209;28;20298;-50
2023/05/29 08:59:09;;;;;;;3.80;2.75;;;;;;;;;;5011137;28;20180;-49
2023/05/29 09:01:36;;;;;;;3.63;2.63;;;;;;;;;;5015446;28;20421;-49
2023/05/29 09:04:02;;;;;;;5.35;3.08;;;;;;;;;;5012826;28;20176;-49
2023/05/29 09:06:28;;;;;;;5.07;3.10;;;;;;;;;;5010411;28;20236;-50
2023/05/29 09:08:55;;;;;;;5.50;3.00;;;;;;;;;;5012321;28;20184;-49
2023/05/29 09:11:21;;;;;;;3.92;2.95;;;;;;;;;;5009070;28;20286;-49
2023/05/29 09:13:47;;;;;;;7.03;3.30;;;;;;;;;;5014093;28;20208;-50
2023/05/29 09:16:13;;;;;;;5.35;2.53;;;;;;;;;;5008183;28;20260;-50
2023/05/29 09:18:41;;;;;;;3.83;3.05;;;;;;;;;;5015773;28;20548;-50
2023/05/29 09:21:09;;;;;;;7.38;3.03;;;;;;;;;;5013577;28;20220;-49
2023/05/29 09:23:35;;;;;;;3.78;2.70;;;;;;;;;;5013721;28;20227;-49
2023/05/29 09:26:03;;;;;;;3.80;2.92;;;;;;;;;;5011001;28;20600;-49
2023/05/29 09:28:31;;;;;;;3.55;2.83;;;;;;;;;;5013525;28;20184;-50
2023/05/29 09:30:57;;;;;;;3.53;2.70;;;;;;;;;;5012250;28;20182;-49
2023/05/29 09:33:26;;;;;;;4.57;2.95;;;;;;;;;;5004198;28;20203;-49
2023/05/29 09:35:52;;;;;;;3.65;2.58;;;;;;;;;;5010536;28;20172;-49
2023/05/29 09:38:18;;;;;;;5.95;2.90;;;;;;;;;;5012552;28;20207;-49
2023/05/29 09:40:47;;;;;;;5.03;2.92;;;;;;;;;;5007763;28;20181;-50
2023/05/29 09:43:17;;;;;;;3.63;2.63;;;;;;;;;;5012385;28;20199;-49
2023/05/29 09:45:44;;;;;;;4.65;3.03;;;;;;;;;;5006442;28;20180;-49
2023/05/29 09:48:14;;;;;;;4.95;3.08;;;;;;;;;;5014620;28;20555;-50
2023/05/29 09:50:43;;;;;;;5.78;3.00;;;;;;;;;;5015651;28;20184;-49
2023/05/29 09:53:24;;;;;;;4.35;2.80;;;;;;;;;;5009669;28;20197;-49
2023/05/29 09:55:50;;;;;;;3.55;2.70;;;;;;;;;;5007861;28;20173;-50
2023/05/29 09:58:18;;;;;;;4.70;3.45;;;;;;;;;;5012861;28;20259;-49
2023/05/29 10:00:44;;;;;;;4.25;2.53;;;;;;;;;;5007427;28;20231;-49
2023/05/29 10:03:12;;;;;;;3.90;2.70;;;;;;;;;;5013639;28;20181;-49
2023/05/29 10:05:38;;;;;;;15.65;2.95;;;;;;;;;;5008503;28;20205;-49
2023/05/29 10:08:06;;;;;;;14.88;2.85;;;;;;;;;;5005341;28;20188;-49
2023/05/29 10:10:32;;;;;;;5.78;3.15;;;;;;;;;;5007164;28;20177;-49
2023/05/29 10:13:02;;;;;;;5.03;2.70;;;;;;;;;;5008867;28;20204;-49
2023/05/29 10:15:30;;;;;;;4.00;3.00;;;;;;;;;;5005774;28;20173;-49
2023/05/29 10:18:04;;;;;;;3.95;2.60;;;;;;;;;;5009299;28;20466;-49
2023/05/29 10:20:30;;;;;;;4.35;2.45;;;;;;;;;;5012041;28;20546;-49
2023/05/29 10:22:59;;;;;;;4.95;2.50;;;;;;;;;;5007934;28;20188;-49
2023/05/29 10:25:25;;;;;;;4.00;2.53;;;;;;;;;;5011937;28;20185;-49
2023/05/29 10:27:51;;;;;;;4.13;2.63;;;;;;;;;;5015979;28;20192;-49
2023/05/29 10:30:26;;;;;;;5.10;2.80;;;;;;;;;;5014789;28;20280;-49
2023/05/29 10:33:30;;;;;;;3.05;2.33;;;;;;;;;;5012451;28;20282;-49
2023/05/29 10:36:17;;;;;;;5.55;2.65;;;;;;;;;;5032504;28;20180;-49
2023/05/29 10:38:45;;;;;;;2.88;2.10;;;;;;;;;;5024227;28;20267;-49
2023/05/29 10:41:26;;;;;;;6.55;2.50;;;;;;;;;;5016333;28;20200;-49
2023/05/29 10:43:59;;;;;;;4.85;2.75;;;;;;;;;;5006770;28;20170;-49
2023/05/29 10:46:47;;;;;;;4.45;2.42;;;;;;;;;;5009571;28;20719;-49
2023/05/29 10:49:20;;;;;;;3.85;2.45;;;;;;;;;;5016148;28;20180;-49
2023/05/29 10:51:46;;;;;;;4.00;2.40;;;;;;;;;;5009251;28;20604;-49
2023/05/29 10:54:22;;;;;;;4.95;2.75;;;;;;;;;;5016808;28;20180;-49
2023/05/29 10:56:57;;;;;;;4.35;2.30;;;;;;;;;;5011342;28;20210;-49
2023/05/29 10:59:27;;;;;;;7.93;2.60;;;;;;;;;;5011809;28;20184;-47
2023/05/29 11:01:54;;;;;;;4.22;2.35;;;;;;;;;;5015111;28;20184;-48
2023/05/29 11:04:20;;;;;;;6.78;2.75;;;;;;;;;;5016491;28;20192;-49
2023/05/29 11:06:46;;;;;;;4.22;2.63;;;;;;;;;;5008000;28;20204;-47
2023/05/29 11:09:31;;;;;;;4.43;2.88;;;;;;;;;;5010142;28;20173;-45
2023/05/29 11:12:13;;;;;;;9.25;2.90;;;;;;;;;;5007510;28;20219;-47
2023/05/29 11:14:49;;;;;;;5.65;2.80;;;;;;;;;;5015690;28;20172;-49
2023/05/29 11:17:34;;;;;;;4.45;2.20;;;;;;;;;;5016492;28;20203;-43
2023/05/29 11:20:07;;;;;;;6.78;2.17;;;;;;;;;;5016182;28;20197;-43
2023/05/29 11:22:38;;;;;;;5.72;3.40;;;;;;;;;;5011738;28;20276;-43
2023/05/29 11:25:05;;;;;;;4.13;2.67;;;;;;;;;;5010828;28;20216;-43
2023/05/29 11:27:32;;;;;;;3.97;2.70;;;;;;;;;;5014284;28;20222;-44
2023/05/29 11:29:58;;;;;;;4.88;2.78;;;;;;;;;;5014814;28;20344;-44
2023/05/29 11:32:28;;;;;;;5.78;2.63;;;;;;;;;;5012407;28;20239;-44
2023/05/29 11:34:56;;;;;;;5.28;2.95;;;;;;;;;;5019843;28;20549;-44
2023/05/29 11:37:22;;;;;;;5.75;2.75;;;;;;;;;;5012261;28;20180;-44
2023/05/29 11:39:48;;;;;;;7.45;3.08;;;;;;;;;;5016170;28;20172;-44
2023/05/29 11:42:14;;;;;;;6.88;2.42;;;;;;;;;;5013935;28;20207;-44
2023/05/29 11:44:40;;;;;;;5.38;2.42;;;;;;;;;;5012812;28;20561;-44
2023/05/29 11:47:07;;;;;;;8.20;2.80;;;;;;;;;;5012041;28;20189;-43
2023/05/29 11:49:34;;;;;;;8.32;2.72;;;;;;;;;;5015567;28;20188;-44
2023/05/29 11:52:07;;;;;;;9.25;2.83;;;;;;;;;;5014776;28;20299;-44
2023/05/29 11:54:37;;;;;;;7.85;2.92;;;;;;;;;;5009050;28;20252;-44
2023/05/29 11:57:05;;;;;;;2.53;2.17;;;;;;;;;;5011926;28;20187;-44
2023/05/29 11:59:31;;;;;;;9.77;3.03;;;;;;;;;;5009498;28;20189;-44
2023/05/29 12:01:57;;;;;;;7.47;3.05;;;;;;;;;;5007915;28;20184;-44
2023/05/29 12:04:23;;;;;;;5.25;2.30;;;;;;;;;;5016020;28;20583;-44
2023/05/29 12:06:49;;;;;;;5.00;2.50;;;;;;;;;;5007856;28;20205;-44
2023/05/29 12:09:25;;;;;;;3.20;2.20;;;;;;;;;;5009838;28;20479;-44
2023/05/29 12:11:51;;;;;;;4.07;2.20;;;;;;;;;;5000719;28;20196;-44
2023/05/29 12:14:17;;;;;;;5.95;2.20;;;;;;;;;;5014774;28;20185;-44
2023/05/29 12:16:43;;;;;;;6.13;2.22;;;;;;;;;;5011830;28;20195;-44
2023/05/29 12:19:09;;;;;;;2.95;2.33;;;;;;;;;;5014064;28;20184;-44
2023/05/29 12:21:36;;;;;;;3.83;2.40;;;;;;;;;;5014406;28;20492;-44
2023/05/29 12:24:02;;;;;;;4.28;2.33;;;;;;;;;;5008057;28;20177;-44
2023/05/29 12:26:30;;;;;;;3.55;2.20;;;;;;;;;;5001384;28;20200;-44
2023/05/29 12:28:56;;;;;;;3.80;2.25;;;;;;;;;;5010163;28;20218;-44
2023/05/29 12:31:28;;;;;;;5.97;2.30;;;;;;;;;;5014336;28;20228;-44
2023/05/29 12:33:58;;;;;;;3.22;2.40;;;;;;;;;;5007658;28;20172;-44
2023/05/29 12:36:26;;;;;;;4.78;2.47;;;;;;;;;;5015281;28;20259;-44
2023/05/29 12:38:52;;;;;;;3.53;2.40;;;;;;;;;;5019327;28;20186;-44
2023/05/29 12:41:33;;;;;;;2.50;2.30;;;;;;;;;;5012983;28;20180;-44
2023/05/29 12:44:02;;;;;;;4.53;2.15;;;;;;;;;;5004191;28;20185;-44
2023/05/29 12:46:28;;;;;;;3.42;2.50;;;;;;;;;;5009037;28;20181;-44
2023/05/29 12:48:55;;;;;;;4.53;2.20;;;;;;;;;;5014553;28;20452;-44
2023/05/29 12:51:27;;;;;;;4.93;2.10;;;;;;;;;;5029616;28;20480;-44
2023/05/29 12:53:54;;;;;;;3.20;1.80;;;;;;;;;;5004115;28;20175;-44
2023/05/29 12:56:26;;;;;;;3.67;1.90;;;;;;;;;;5011505;28;20690;-44
2023/05/29 12:58:52;;;;;;;5.03;2.17;;;;;;;;;;5007889;28;20255;-44
2023/05/29 13:01:18;;;;;;;3.42;2.10;;;;;;;;;;5013812;28;20192;-44
2023/05/29 13:03:44;;;;;;;2.90;2.42;;;;;;;;;;5011953;28;20177;-44
2023/05/29 13:06:11;;;;;;;4.40;2.30;;;;;;;;;;5014737;28;20649;-44
2023/05/29 13:08:37;;;;;;;3.10;2.03;;;;;;;;;;5014080;28;20188;-44
2023/05/29 13:11:03;;;;;;;4.63;2.25;;;;;;;;;;5014460;28;20176;-44
2023/05/29 13:13:28;;;;;;;4.55;1.95;;;;;;;;;;5008463;28;20218;-44
2023/05/29 13:15:54;;;;;;;3.05;2.00;;;;;;;;;;5008882;28;20180;-44
2023/05/29 13:18:20;;;;;;;3.55;2.28;;;;;;;;;;5009124;28;20806;-44
2023/05/29 13:20:47;;;;;;;2.95;2.50;;;;;;;;;;5009263;28;20201;-44
2023/05/29 13:23:12;;;;;;;2.90;2.05;;;;;;;;;;5009170;28;20272;-44
2023/05/29 13:25:38;;;;;;;3.58;2.00;;;;;;;;;;5014744;28;20266;-44
2023/05/29 13:28:04;;;;;;;2.53;2.33;;;;;;;;;;5011378;28;20789;-44
2023/05/29 13:30:30;;;;;;;3.42;2.10;;;;;;;;;;5006993;28;20200;-44
2023/05/29 13:32:56;;;;;;;2.55;1.95;;;;;;;;;;5010470;28;20208;-44
2023/05/29 13:35:22;;;;;;;3.40;2.35;;;;;;;;;;5010426;28;20184;-44
2023/05/29 13:37:48;;;;;;;2.42;2.15;;;;;;;;;;5004463;28;20259;-44
2023/05/29 13:40:14;;;;;;;2.25;1.88;;;;;;;;;;5014112;28;20172;-44
2023/05/29 13:42:41;;;;;;;2.88;2.25;;;;;;;;;;5014084;28;20187;-44
2023/05/29 13:45:07;;;;;;;2.08;1.88;;;;;;;;;;5012792;28;20243;-44
2023/05/29 13:47:33;;;;;;;7.88;2.20;;;;;;;;;;5012908;28;20271;-44
2023/05/29 13:49:59;;;;;;;2.92;2.20;;;;;;;;;;5013997;28;20412;-44
2023/05/29 13:52:26;;;;;;;3.63;2.38;;;;;;;;;;5013941;28;20246;-44
2023/05/29 13:54:52;;;;;;;2.45;2.22;;;;;;;;;;5013873;28;20208;-44
2023/05/29 13:57:18;;;;;;;1.77;1.67;;;;;;;;;;5013043;28;20321;-44
2023/05/29 13:59:44;;;;;;;2.88;1.88;;;;;;;;;;5016073;28;20195;-44
2023/05/29 14:02:10;;;;;;;2.97;2.10;;;;;;;;;;5021244;28;20454;-45
2023/05/29 14:04:35;;;;;;;3.00;2.30;;;;;;;;;;5015696;28;20184;-44
2023/05/29 14:07:01;;;;;;;3.47;2.40;;;;;;;;;;5017482;28;20228;-44
2023/05/29 14:09:27;;;;;;;2.28;1.92;;;;;;;;;;5017866;28;20184;-44
2023/05/29 14:11:58;;;;;;;2.78;2.20;;;;;;;;;;5014949;28;20777;-44
2023/05/29 14:14:25;;;;;;;3.08;1.85;;;;;;;;;;5015758;28;20203;-44
2023/05/29 14:16:51;;;;;;;2.63;2.10;;;;;;;;;;5018445;28;20188;-44
2023/05/29 14:19:18;;;;;;;1.98;1.77;;;;;;;;;;5013372;28;20173;-44
2023/05/29 14:21:44;;;;;;;4.20;2.10;;;;;;;;;;5012574;28;20188;-44
2023/05/29 14:24:10;;;;;;;3.22;1.90;;;;;;;;;;5017845;28;20560;-44
2023/05/29 14:26:36;;;;;;;3.33;2.22;;;;;;;;;;5016830;28;20195;-44
2023/05/29 14:29:02;;;;;;;2.03;1.85;;;;;;;;;;5013973;28;20177;-44
2023/05/29 14:31:28;;;;;;;3.30;2.08;;;;;;;;;;5013772;28;20223;-44
2023/05/29 14:33:54;;;;;;;3.53;2.15;;;;;;;;;;5016718;28;20184;-44
2023/05/29 14:36:20;;;;;;;3.28;2.47;;;;;;;;;;5017460;28;20276;-44
2023/05/29 14:38:47;;;;;;;2.70;2.25;;;;;;;;;;5010688;28;20264;-44
2023/05/29 14:41:13;;;;;;;3.17;2.13;;;;;;;;;;5015535;28;20207;-44